Time,TemperatureF,DewpointF,PressureIn,WindDirection,WindDirectionDegrees,WindSpeedMPH,WindSpeedGustMPH,Humidity,HourlyPrecipIn,Conditions,Clouds,dailyrainin,SolarRadiationWatts/m^2,SoftwareType,DateUTC
2013-01-22 00:02:00,56.0,42.7,29.78,SW,215,3.0,5.0,61,0.00,,,0.00,0,Wunderground v.1.15,2013-01-21 22:02:00,
2013-01-22 00:22:00,55.5,43.5,29.78,SW,228,2.0,3.0,64,0.00,,,0.00,0,Wunderground v.1.15,2013-01-21 22:22:00,
2013-01-22 00:32:00,55.2,43.2,29.77,SW,216,1.0,2.0,64,0.00,,,0.00,0,Wunderground v.1.15,2013-01-21 22:32:00,
2013-01-22 00:42:00,55.4,43.0,29.76,SW,229,2.0,2.0,63,0.00,,,0.00,0,Wunderground v.1.15,2013-01-21 22:42:00,
2013-01-22 00:52:00,55.4,43.0,29.75,NE,42,0.0,1.0,63,0.00,,,0.00,0,Wunderground v.1.15,2013-01-21 22:52:00,
2013-01-22 01:02:00,55.2,42.8,29.76,SSE,154,2.0,3.0,63,0.00,,,0.00,0,Wunderground v.1.15,2013-01-21 23:02:00,
2013-01-22 01:12:00,55.5,43.1,29.74,NNW,340,2.0,2.0,63,0.00,,,0.00,0,Wunderground v.1.15,2013-01-21 23:12:00,
2013-01-22 01:22:00,55.5,43.1,29.75,SW,221,3.0,3.0,63,0.00,,,0.00,0,Wunderground v.1.15,2013-01-21 23:22:00,
2013-01-22 01:32:00,56.1,42.8,29.75,SSW,199,1.0,1.0,61,0.00,,,0.00,0,Wunderground v.1.15,2013-01-21 23:32:00,
2013-01-22 01:42:00,56.1,42.4,29.75,SSW,210,1.0,3.0,60,0.00,,,0.00,0,Wunderground v.1.15,2013-01-21 23:42:00,
2013-01-22 01:52:00,56.1,43.3,29.74,West,279,2.0,2.0,62,0.00,,,0.00,0,Wunderground v.1.15,2013-01-21 23:52:00,
2013-01-22 02:02:00,56.4,40.4,29.72,West,277,3.0,3.0,55,0.00,,,0.00,0,Wunderground v.1.15,2013-01-22 00:02:00,
2013-01-22 02:12:00,57.9,41.3,29.73,SW,225,4.0,4.0,54,0.00,,,0.00,0,Wunderground v.1.15,2013-01-22 00:12:00,
2013-01-22 02:22:00,58.7,41.6,29.72,SSW,212,3.0,3.0,53,0.00,,,0.00,0,Wunderground v.1.15,2013-01-22 00:22:00,
2013-01-22 02:32:00,58.2,41.1,29.71,SSE,158,2.0,3.0,53,0.00,,,0.00,0,Wunderground v.1.15,2013-01-22 00:32:00,
2013-01-22 02:42:00,58.2,40.6,29.70,SSW,207,4.0,4.0,52,0.00,,,0.00,0,Wunderground v.1.15,2013-01-22 00:42:00,
2013-01-22 02:52:00,58.3,40.7,29.70,SSW,205,3.0,4.0,52,0.00,,,0.00,0,Wunderground v.1.15,2013-01-22 00:52:00,
2013-01-22 03:02:00,57.9,41.3,29.70,SW,234,4.0,4.0,54,0.00,,,0.00,0,Wunderground v.1.15,2013-01-22 01:02:00,
2013-01-22 03:12:00,57.4,40.9,29.70,SSW,211,4.0,6.0,54,0.00,,,0.00,0,Wunderground v.1.15,2013-01-22 01:12:00,
2013-01-22 03:32:00,57.2,40.7,29.70,South,174,3.0,3.0,54,0.00,,,0.00,0,Wunderground v.1.15,2013-01-22 01:32:00,
2013-01-22 03:42:00,56.8,40.8,29.70,SSW,192,4.0,4.0,55,0.00,,,0.00,0,Wunderground v.1.15,2013-01-22 01:42:00,
2013-01-22 04:02:00,57.0,40.0,29.69,SSE,148,4.0,4.0,53,0.00,,,0.00,0,Wunderground v.1.15,2013-01-22 02:02:00,
2013-01-22 04:12:00,57.4,39.9,29.69,SW,215,5.0,5.0,52,0.00,,,0.00,0,Wunderground v.1.15,2013-01-22 02:12:00,
2013-01-22 04:22:00,57.5,40.0,29.69,SW,234,4.0,5.0,52,0.00,,,0.00,0,Wunderground v.1.15,2013-01-22 02:22:00,
2013-01-22 04:32:00,57.6,39.6,29.69,SSW,208,3.0,3.0,51,0.00,,,0.00,0,Wunderground v.1.15,2013-01-22 02:32:00,
2013-01-22 04:42:00,57.7,39.7,29.68,SSW,207,4.0,4.0,51,0.00,,,0.00,0,Wunderground v.1.15,2013-01-22 02:42:00,
2013-01-22 04:52:00,57.8,39.3,29.68,SSE,149,5.0,5.0,50,0.00,,,0.00,0,Wunderground v.1.15,2013-01-22 02:52:00,
2013-01-22 05:02:00,57.6,39.6,29.68,SSE,165,5.0,5.0,51,0.00,,,0.00,0,Wunderground v.1.15,2013-01-22 03:02:00,
2013-01-22 05:22:00,58.1,39.0,29.67,South,176,9.0,12.0,49,0.00,,,0.00,0,Wunderground v.1.15,2013-01-22 03:22:00,
2013-01-22 05:32:00,58.0,40.0,29.68,SE,146,8.0,9.0,51,0.00,,,0.00,0,Wunderground v.1.15,2013-01-22 03:32:00,
2013-01-22 05:42:00,57.1,41.1,29.68,South,178,5.0,5.0,55,0.00,,,0.00,0,Wunderground v.1.15,2013-01-22 03:42:00,
2013-01-22 05:52:00,56.4,40.4,29.68,SSW,209,4.0,6.0,55,0.00,,,0.00,0,Wunderground v.1.15,2013-01-22 03:52:00,
2013-01-22 06:02:00,56.5,41.4,29.70,NW,308,7.0,7.0,57,0.00,,,0.00,0,Wunderground v.1.15,2013-01-22 04:02:00,
2013-01-22 06:12:00,56.3,42.1,29.71,SSW,199,8.0,8.0,59,0.00,,,0.00,0,Wunderground v.1.15,2013-01-22 04:12:00,
2013-01-22 06:22:00,54.9,42.9,29.72,South,188,4.0,4.0,64,0.00,,,0.00,0,Wunderground v.1.15,2013-01-22 04:22:00,
2013-01-22 06:32:00,53.5,44.0,29.73,SSW,213,3.0,4.0,70,0.15,,,0.02,0,Wunderground v.1.15,2013-01-22 04:32:00,
2013-01-22 06:42:00,52.7,44.6,29.72,WSW,245,4.0,5.0,74,0.11,,,0.03,0,Wunderground v.1.15,2013-01-22 04:42:00,
2013-01-22 06:52:00,52.3,44.6,29.72,WSW,244,5.0,5.0,75,0.08,,,0.04,0,Wunderground v.1.15,2013-01-22 04:52:00,
2013-01-22 07:02:00,52.1,44.8,29.71,SW,217,4.0,4.0,76,0.00,,,0.04,0,Wunderground v.1.15,2013-01-22 05:02:00,
2013-01-22 07:12:00,52.1,45.1,29.71,SW,227,3.0,4.0,77,0.00,,,0.05,0,Wunderground v.1.15,2013-01-22 05:12:00,
2013-01-22 07:22:00,52.1,45.4,29.70,South,185,4.0,4.0,78,0.06,,,0.06,0,Wunderground v.1.15,2013-01-22 05:22:00,
2013-01-22 07:32:00,52.3,45.6,29.71,South,173,4.0,6.0,78,0.07,,,0.06,0,Wunderground v.1.15,2013-01-22 05:32:00,
2013-01-22 07:42:00,52.9,45.9,29.70,WNW,288,5.0,7.0,77,0.06,,,0.07,0,Wunderground v.1.15,2013-01-22 05:42:00,
2013-01-22 07:52:00,53.3,45.6,29.69,SSW,211,6.0,6.0,75,0.00,,,0.07,7,Wunderground v.1.15,2013-01-22 05:52:00,
2013-01-22 08:02:00,53.2,45.8,29.70,SSW,203,4.0,4.0,76,0.00,,,0.07,23,Wunderground v.1.15,2013-01-22 06:02:00,
2013-01-22 08:12:00,52.3,45.6,29.70,South,173,3.0,3.0,78,0.00,,,0.07,28,Wunderground v.1.15,2013-01-22 06:12:00,
2013-01-22 08:22:00,51.9,46.3,29.70,SSW,213,3.0,5.0,81,0.00,,,0.07,63,Wunderground v.1.15,2013-01-22 06:22:00,
2013-01-22 08:32:00,51.5,45.2,29.71,SW,226,4.0,5.0,79,0.00,,,0.07,33,Wunderground v.1.15,2013-01-22 06:32:00,
2013-01-22 08:42:00,51.5,45.2,29.71,South,189,5.0,5.0,79,0.00,,,0.07,65,Wunderground v.1.15,2013-01-22 06:42:00,
2013-01-22 08:52:00,52.3,45.6,29.71,SSE,166,4.0,4.0,78,0.00,,,0.07,190,Wunderground v.1.15,2013-01-22 06:52:00,
2013-01-22 09:02:00,53.3,45.2,29.71,SW,231,3.0,5.0,74,0.00,,,0.07,216,Wunderground v.1.15,2013-01-22 07:02:00,
2013-01-22 09:12:00,53.7,45.2,29.71,SW,233,5.0,5.0,73,0.00,,,0.07,123,Wunderground v.1.15,2013-01-22 07:12:00,
2013-01-22 09:32:00,54.6,45.4,29.71,East,101,5.0,5.0,71,0.00,,,0.07,239,Wunderground v.1.15,2013-01-22 07:32:00,
2013-01-22 09:42:00,54.1,44.9,29.71,SW,221,5.0,5.0,71,0.00,,,0.07,265,Wunderground v.1.15,2013-01-22 07:42:00,
2013-01-22 09:52:00,53.6,45.2,29.71,SSE,148,7.0,10.0,73,0.00,,,0.07,278,Wunderground v.1.15,2013-01-22 07:52:00,
2013-01-22 10:02:00,54.2,45.0,29.71,SSW,194,7.0,7.0,71,0.00,,,0.07,301,Wunderground v.1.15,2013-01-22 08:02:00,
2013-01-22 10:12:00,55.4,45.0,29.71,South,183,6.0,6.0,68,0.00,,,0.07,318,Wunderground v.1.15,2013-01-22 08:12:00,
2013-01-22 10:32:00,55.3,45.3,29.71,SSE,165,5.0,7.0,69,0.00,,,0.07,352,Wunderground v.1.15,2013-01-22 08:32:00,
2013-01-22 10:52:00,55.1,45.5,29.72,SW,225,5.0,5.0,70,0.00,,,0.07,388,Wunderground v.1.15,2013-01-22 08:52:00,
2013-01-22 11:02:00,55.5,45.9,29.71,West,275,6.0,10.0,70,0.00,,,0.07,401,Wunderground v.1.15,2013-01-22 09:02:00,
2013-01-22 11:12:00,56.3,45.9,29.71,SSW,192,6.0,6.0,68,0.00,,,0.07,418,Wunderground v.1.15,2013-01-22 09:12:00,
2013-01-22 11:22:00,56.6,45.4,29.71,SE,138,8.0,10.0,66,0.00,,,0.07,424,Wunderground v.1.15,2013-01-22 09:22:00,
2013-01-22 11:32:00,57.1,45.4,29.70,WSW,238,7.0,7.0,65,0.00,,,0.07,427,Wunderground v.1.15,2013-01-22 09:32:00,
2013-01-22 11:42:00,57.4,45.3,29.70,SSW,213,8.0,11.0,64,0.00,,,0.07,432,Wunderground v.1.15,2013-01-22 09:42:00,
2013-01-22 12:02:00,57.7,45.6,29.70,SSE,159,8.0,8.0,64,0.00,,,0.07,517,Wunderground v.1.15,2013-01-22 10:02:00,
2013-01-22 12:12:00,57.9,45.4,29.69,SSE,164,8.0,11.0,63,0.00,,,0.07,476,Wunderground v.1.15,2013-01-22 10:12:00,
2013-01-22 12:22:00,58.4,45.8,29.69,South,170,8.0,10.0,63,0.00,,,0.07,469,Wunderground v.1.15,2013-01-22 10:22:00,
2013-01-22 12:32:00,58.9,46.3,29.69,SSW,211,8.0,16.0,63,0.00,,,0.07,448,Wunderground v.1.15,2013-01-22 10:32:00,
2013-01-22 12:42:00,59.3,46.7,29.69,SW,227,8.0,9.0,63,0.00,,,0.07,441,Wunderground v.1.15,2013-01-22 10:42:00,
2013-01-22 13:02:00,59.6,46.6,29.69,SW,234,9.0,9.0,62,0.00,,,0.07,436,Wunderground v.1.15,2013-01-22 11:02:00,
2013-01-22 13:12:00,59.8,46.7,29.69,South,187,8.0,9.0,62,0.00,,,0.07,429,Wunderground v.1.15,2013-01-22 11:12:00,
2013-01-22 13:22:00,59.9,46.4,29.69,SSW,213,7.0,10.0,61,0.00,,,0.07,420,Wunderground v.1.15,2013-01-22 11:22:00,
2013-01-22 13:32:00,60.1,46.6,29.69,WSW,256,8.0,9.0,61,0.00,,,0.07,413,Wunderground v.1.15,2013-01-22 11:32:00,
2013-01-22 13:42:00,60.1,46.6,29.69,SW,231,8.0,8.0,61,0.00,,,0.07,403,Wunderground v.1.15,2013-01-22 11:42:00,
2013-01-22 14:02:00,59.7,46.7,29.69,South,177,7.0,7.0,62,0.00,,,0.07,374,Wunderground v.1.15,2013-01-22 12:02:00,
2013-01-22 14:12:00,59.7,47.1,29.69,South,169,6.0,6.0,63,0.00,,,0.07,357,Wunderground v.1.15,2013-01-22 12:12:00,
2013-01-22 14:22:00,59.6,47.0,29.69,West,275,4.0,4.0,63,0.00,,,0.07,336,Wunderground v.1.15,2013-01-22 12:22:00,
2013-01-22 14:32:00,59.0,46.8,29.69,SW,219,6.0,6.0,64,0.00,,,0.07,320,Wunderground v.1.15,2013-01-22 12:32:00,
2013-01-22 14:52:00,59.0,47.2,29.69,SE,138,6.0,6.0,65,0.00,,,0.07,285,Wunderground v.1.15,2013-01-22 12:52:00,
2013-01-22 15:02:00,59.8,46.3,29.69,SW,214,5.0,6.0,61,0.00,,,0.07,260,Wunderground v.1.15,2013-01-22 13:02:00,
2013-01-22 15:22:00,60.5,46.5,29.69,SSW,205,5.0,5.0,60,0.00,,,0.07,221,Wunderground v.1.15,2013-01-22 13:22:00,
2013-01-22 15:32:00,60.4,46.9,29.69,SW,236,6.0,6.0,61,0.00,,,0.07,185,Wunderground v.1.15,2013-01-22 13:32:00,
2013-01-22 15:52:00,59.1,45.7,29.70,South,180,9.0,11.0,61,0.00,,,0.07,40,Wunderground v.1.15,2013-01-22 13:52:00,
2013-01-22 16:02:00,58.9,45.5,29.69,SW,229,8.0,11.0,61,0.00,,,0.07,42,Wunderground v.1.15,2013-01-22 14:02:00,
2013-01-22 16:22:00,58.4,45.8,29.69,ESE,121,9.0,9.0,63,0.00,,,0.07,32,Wunderground v.1.15,2013-01-22 14:22:00,
2013-01-22 16:32:00,58.6,45.2,29.69,WSW,247,9.0,9.0,61,0.00,,,0.07,40,Wunderground v.1.15,2013-01-22 14:32:00,
2013-01-22 16:52:00,58.6,45.2,29.70,SSW,211,8.0,8.0,61,0.00,,,0.07,18,Wunderground v.1.15,2013-01-22 14:52:00,
2013-01-22 17:02:00,58.5,45.1,29.70,SW,230,7.0,10.0,61,0.00,,,0.07,9,Wunderground v.1.15,2013-01-22 15:02:00,
2013-01-22 17:12:00,58.2,45.2,29.70,SW,223,4.0,9.0,62,0.00,,,0.07,0,Wunderground v.1.15,2013-01-22 15:12:00,
2013-01-22 17:22:00,57.8,45.7,29.71,West,271,4.0,4.0,64,0.00,,,0.07,0,Wunderground v.1.15,2013-01-22 15:22:00,
2013-01-22 17:32:00,57.3,45.6,29.71,SW,215,4.0,4.0,65,0.00,,,0.07,0,Wunderground v.1.15,2013-01-22 15:32:00,
2013-01-22 17:42:00,57.5,46.2,29.71,ESE,118,6.0,6.0,66,0.00,,,0.07,0,Wunderground v.1.15,2013-01-22 15:42:00,
2013-01-22 18:02:00,57.6,45.5,29.72,SSE,149,5.0,10.0,64,0.00,,,0.07,0,Wunderground v.1.15,2013-01-22 16:02:00,
2013-01-22 18:12:00,57.6,45.5,29.72,SW,227,6.0,8.0,64,0.00,,,0.07,0,Wunderground v.1.15,2013-01-22 16:12:00,
2013-01-22 18:22:00,57.3,45.2,29.72,South,190,7.0,8.0,64,0.00,,,0.07,0,Wunderground v.1.15,2013-01-22 16:22:00,
2013-01-22 18:32:00,57.3,45.2,29.73,WSW,248,9.0,9.0,64,0.00,,,0.07,0,Wunderground v.1.15,2013-01-22 16:32:00,
2013-01-22 18:42:00,56.7,45.1,29.73,SSW,207,8.0,11.0,65,0.00,,,0.07,0,Wunderground v.1.15,2013-01-22 16:42:00,
2013-01-22 18:52:00,56.4,45.2,29.73,West,259,9.0,9.0,66,0.00,,,0.07,0,Wunderground v.1.15,2013-01-22 16:52:00,
2013-01-22 19:02:00,56.3,45.5,29.73,SSE,151,8.0,8.0,67,0.00,,,0.07,0,Wunderground v.1.15,2013-01-22 17:02:00,
2013-01-22 19:12:00,56.3,45.9,29.74,SE,126,7.0,7.0,68,0.00,,,0.07,0,Wunderground v.1.15,2013-01-22 17:12:00,
2013-01-22 19:22:00,56.2,46.2,29.73,SW,225,7.0,7.0,69,0.00,,,0.07,0,Wunderground v.1.15,2013-01-22 17:22:00,
2013-01-22 19:32:00,56.0,46.0,29.74,SW,216,6.0,7.0,69,0.00,,,0.07,0,Wunderground v.1.15,2013-01-22 17:32:00,
2013-01-22 19:42:00,55.8,46.2,29.74,SSW,198,6.0,6.0,70,0.00,,,0.07,0,Wunderground v.1.15,2013-01-22 17:42:00,
2013-01-22 19:52:00,55.6,46.0,29.73,SW,232,5.0,7.0,70,0.00,,,0.07,0,Wunderground v.1.15,2013-01-22 17:52:00,
2013-01-22 20:02:00,55.6,46.0,29.74,SW,234,6.0,10.0,70,0.00,,,0.07,0,Wunderground v.1.15,2013-01-22 18:02:00,
2013-01-22 20:12:00,55.4,46.2,29.74,SW,228,5.0,5.0,71,0.00,,,0.07,0,Wunderground v.1.15,2013-01-22 18:12:00,
2013-01-22 20:22:00,55.1,46.2,29.74,SW,222,7.0,7.0,72,0.00,,,0.07,0,Wunderground v.1.15,2013-01-22 18:22:00,
2013-01-22 20:32:00,55.1,46.2,29.74,SSW,209,8.0,8.0,72,0.00,,,0.07,0,Wunderground v.1.15,2013-01-22 18:32:00,
2013-01-22 20:52:00,55.1,45.9,29.75,SE,126,9.0,9.0,71,0.00,,,0.07,0,Wunderground v.1.15,2013-01-22 18:52:00,
2013-01-22 21:02:00,55.2,46.0,29.75,SSW,206,9.0,9.0,71,0.00,,,0.07,0,Wunderground v.1.15,2013-01-22 19:02:00,
2013-01-22 21:12:00,55.0,45.8,29.75,SW,215,7.0,16.0,71,0.00,,,0.07,0,Wunderground v.1.15,2013-01-22 19:12:00,
2013-01-22 21:22:00,55.2,46.0,29.75,SW,233,8.0,8.0,71,0.00,,,0.07,0,Wunderground v.1.15,2013-01-22 19:22:00,
2013-01-22 21:42:00,55.1,45.9,29.76,SSW,204,8.0,8.0,71,0.00,,,0.07,0,Wunderground v.1.15,2013-01-22 19:42:00,
2013-01-22 21:52:00,54.5,46.0,29.76,SSW,200,6.0,9.0,73,0.00,,,0.07,0,Wunderground v.1.15,2013-01-22 19:52:00,
2013-01-22 22:02:00,54.0,45.9,29.77,East,80,7.0,7.0,74,0.00,,,0.07,0,Wunderground v.1.15,2013-01-22 20:02:00,
2013-01-22 22:22:00,54.1,46.3,29.77,SW,227,6.0,7.0,75,0.00,,,0.07,0,Wunderground v.1.15,2013-01-22 20:22:00,
2013-01-22 22:42:00,54.5,46.0,29.77,WNW,284,5.0,8.0,73,0.00,,,0.07,0,Wunderground v.1.15,2013-01-22 20:42:00,
2013-01-22 22:52:00,54.7,46.2,29.77,SW,231,5.0,6.0,73,0.00,,,0.07,0,Wunderground v.1.15,2013-01-22 20:52:00,
2013-01-22 23:02:00,54.8,45.9,29.78,SSW,211,6.0,6.0,72,0.00,,,0.07,0,Wunderground v.1.15,2013-01-22 21:02:00,
2013-01-22 23:12:00,54.9,45.7,29.78,SSW,192,7.0,7.0,71,0.00,,,0.07,0,Wunderground v.1.15,2013-01-22 21:12:00,
2013-01-22 23:22:00,54.3,45.5,29.78,SSW,194,7.0,7.0,72,0.00,,,0.07,0,Wunderground v.1.15,2013-01-22 21:22:00,
2013-01-22 23:32:00,54.1,45.3,29.78,SSW,200,7.0,10.0,72,0.00,,,0.07,0,Wunderground v.1.15,2013-01-22 21:32:00,
2013-01-22 23:42:00,54.0,44.8,29.78,SSW,198,8.0,12.0,71,0.00,,,0.07,0,Wunderground v.1.15,2013-01-22 21:42:00,